Terminal Aerodrome Forecast
Issued by NWS Charleston, WV

Home | Current Version | Previous Version | Text Only | Print | Product List | Glossary On
Versions: 1 2 3 4 5 6 7 8 9 10 11 12 13 14 15 16 17 18 19 20 21 22 23
000
FTUS41 KRLX 241136
TAFEKN
TAF
KEKN 241136Z 2412/2512 18005KT 5SM -RA BKN025
     FM241300 14005KT P6SM BKN040
     FM242000 14009KT P6SM OVC025
     FM242300 14009KT 6SM -SHRA OVC020
     FM250500 17006KT 3SM SHRA OVC015
     FM250900 VRB03KT 6SM -SHRA OVC008=

USA.gov is the U.S. government's official web portal to all federal, state and local government web resources and services.